createdAt,value
2018-03-04T00:02:09.960Z,42.30
2018-03-04T00:04:38.240Z,40.40
2018-03-04T00:07:06.524Z,39.77
2018-03-04T00:09:34.813Z,40.17
2018-03-04T00:12:03.170Z,43.97
2018-03-04T00:14:30.761Z,37.57
2018-03-04T00:16:59.160Z,39.83
2018-03-04T00:19:26.676Z,40.00
2018-03-04T00:21:54.556Z,40.80
2018-03-04T00:24:22.076Z,38.10
2018-03-04T00:26:49.586Z,40.57
2018-03-04T00:29:17.169Z,39.20
2018-03-04T00:31:45.930Z,40.27
2018-03-04T00:34:13.440Z,38.90
2018-03-04T00:36:40.950Z,40.73
2018-03-04T00:39:08.558Z,40.00
2018-03-04T00:41:36.949Z,40.67
2018-03-04T00:44:05.263Z,39.23
2018-03-04T00:46:32.773Z,39.73
2018-03-04T00:49:01.052Z,39.87
2018-03-04T00:51:29.353Z,38.27
2018-03-04T00:53:56.868Z,39.93
2018-03-04T00:56:24.464Z,42.13
2018-03-04T00:58:52.744Z,40.73
2018-03-04T01:01:21.037Z,40.93
2018-03-04T01:03:49.316Z,38.27
2018-03-04T01:06:17.108Z,39.60
2018-03-04T01:08:44.616Z,40.67
2018-03-04T01:11:12.131Z,36.57
2018-03-04T01:13:39.650Z,37.73
2018-03-04T01:16:07.238Z,38.00
2018-03-04T01:18:35.897Z,35.77
2018-03-04T01:21:03.410Z,35.93
2018-03-04T01:23:30.919Z,33.10
2018-03-04T01:25:58.444Z,37.27
2018-03-04T01:28:25.962Z,37.13
2018-03-04T01:30:54.257Z,36.87
2018-03-04T01:33:22.642Z,36.30
2018-03-04T01:35:50.915Z,37.30
2018-03-04T01:38:19.205Z,39.27
2018-03-04T01:40:47.486Z,36.07
2018-03-04T01:43:15.762Z,34.17
2018-03-04T01:45:44.035Z,35.27
2018-03-04T01:48:12.329Z,32.90
2018-03-04T01:50:40.707Z,34.83
2018-03-04T01:53:09.089Z,36.17
2018-03-04T01:55:37.473Z,37.63
2018-03-04T01:58:05.763Z,36.47
2018-03-04T02:00:33.320Z,39.77
2018-03-04T02:03:01.703Z,34.70
2018-03-04T02:05:29.979Z,34.03
2018-03-04T02:07:58.259Z,37.27
2018-03-04T02:10:26.536Z,32.97
2018-03-04T02:12:54.820Z,34.80
2018-03-04T02:15:23.210Z,33.70
2018-03-04T02:17:51.570Z,35.60
2018-03-04T02:20:19.901Z,35.20
2018-03-04T02:22:47.451Z,38.63
2018-03-04T02:25:15.002Z,35.27
2018-03-04T02:27:43.386Z,35.67
2018-03-04T02:30:11.769Z,36.07
2018-03-04T02:32:40.146Z,35.40
2018-03-04T02:35:08.425Z,33.93
2018-03-04T02:37:36.976Z,34.60
2018-03-04T02:40:04.585Z,37.40
2018-03-04T02:42:33.852Z,36.07
2018-03-04T02:45:01.521Z,34.90
2018-03-04T02:47:29.046Z,35.27
2018-03-04T02:49:56.553Z,33.30
2018-03-04T02:52:25.884Z,32.50
2018-03-04T02:54:54.263Z,33.17
2018-03-04T02:57:22.870Z,33.20
2018-03-04T02:59:50.381Z,31.37
2018-03-04T03:02:17.978Z,31.07
2018-03-04T03:04:46.877Z,30.63
2018-03-04T03:07:15.264Z,31.30
2018-03-04T03:09:42.783Z,28.90
2018-03-04T03:12:10.385Z,29.17
2018-03-04T03:14:38.765Z,27.13
2018-03-04T03:17:07.150Z,29.13
2018-03-04T03:19:35.541Z,28.97
2018-03-04T03:22:03.092Z,25.60
2018-03-04T03:24:31.382Z,25.30
2018-03-04T03:26:59.663Z,23.47
2018-03-04T03:29:27.956Z,23.87
2018-03-04T03:31:55.469Z,22.33
2018-03-04T03:34:22.985Z,23.70
2018-03-04T03:36:50.562Z,24.43
2018-03-04T03:39:18.096Z,23.93
2018-03-04T03:41:46.486Z,24.10
2018-03-04T03:44:13.999Z,21.87
2018-03-04T03:46:41.614Z,22.97
2018-03-04T03:49:09.178Z,22.03
2018-03-04T03:51:36.735Z,20.67
2018-03-04T03:54:05.118Z,22.53
2018-03-04T03:56:33.395Z,23.20
2018-03-04T03:59:01.683Z,20.30
2018-03-04T04:01:30.065Z,19.93
2018-03-04T04:03:58.347Z,20.40
2018-03-04T04:06:26.721Z,19.53
2018-03-04T04:08:55.112Z,20.03
2018-03-04T04:11:23.385Z,19.07
2018-03-04T04:13:51.670Z,18.03
2018-03-04T04:16:20.065Z,19.30
2018-03-04T04:18:47.571Z,18.10
2018-03-04T04:21:15.182Z,18.20
2018-03-04T04:23:43.570Z,20.20
2018-03-04T04:26:11.850Z,18.43
2018-03-04T04:28:40.231Z,18.03
2018-03-04T04:31:08.793Z,18.17
2018-03-04T04:33:36.312Z,18.23
2018-03-04T04:36:03.842Z,17.80
2018-03-04T04:38:32.806Z,18.13
2018-03-04T04:41:00.315Z,17.03
2018-03-04T04:43:27.865Z,16.83
2018-03-04T04:45:56.145Z,16.33
2018-03-04T04:48:24.434Z,16.80
2018-03-04T04:50:51.986Z,16.10
2018-03-04T04:53:20.267Z,15.43
2018-03-04T04:55:48.544Z,18.80
2018-03-04T04:58:16.816Z,17.00
2018-03-04T05:00:44.331Z,15.50
2018-03-04T05:03:11.855Z,17.30
2018-03-04T05:05:40.132Z,16.47
2018-03-04T05:08:08.421Z,16.53
2018-03-04T05:10:36.710Z,16.47
2018-03-04T05:13:04.260Z,15.70
2018-03-04T05:15:32.540Z,15.27
2018-03-04T05:18:00.819Z,14.60
2018-03-04T05:20:29.109Z,16.03
2018-03-04T05:22:57.387Z,15.10
2018-03-04T05:25:25.661Z,15.27
2018-03-04T05:27:53.938Z,14.30
2018-03-04T05:30:22.215Z,14.73
2018-03-04T05:32:50.497Z,14.43
2018-03-04T05:35:18.789Z,13.13
2018-03-04T05:37:46.356Z,14.47
2018-03-04T05:40:14.628Z,14.80
2018-03-04T05:42:42.914Z,14.37
2018-03-04T05:45:10.479Z,14.37
2018-03-04T05:47:38.860Z,13.87
2018-03-04T05:50:07.146Z,13.30
2018-03-04T05:52:35.426Z,13.60
2018-03-04T05:55:03.705Z,13.67
2018-03-04T05:57:31.984Z,14.10
2018-03-04T06:00:00.469Z,14.17
2018-03-04T06:02:28.743Z,12.93
2018-03-04T06:04:57.028Z,13.07
2018-03-04T06:07:25.320Z,13.90
2018-03-04T06:09:53.257Z,12.23
2018-03-04T06:12:20.869Z,12.23
2018-03-04T06:14:48.380Z,13.47
2018-03-04T06:17:15.908Z,12.97
2018-03-04T06:19:43.428Z,13.47
2018-03-04T06:22:11.704Z,11.73
2018-03-04T06:24:39.227Z,12.57
2018-03-04T06:27:06.735Z,13.13
2018-03-04T06:29:35.033Z,12.10
2018-03-04T06:32:03.311Z,13.10
2018-03-04T06:34:31.581Z,11.40
2018-03-04T06:37:00.308Z,12.13
2018-03-04T06:39:27.852Z,16.43
2018-03-04T06:41:55.404Z,14.03
2018-03-04T06:44:23.692Z,15.37
2018-03-04T06:46:51.976Z,14.77
2018-03-04T06:49:19.499Z,13.77
2018-03-04T06:51:47.014Z,15.63
2018-03-04T06:54:14.520Z,13.87
2018-03-04T06:56:42.133Z,12.63
2018-03-04T06:59:09.695Z,13.37
2018-03-04T07:01:37.261Z,15.47
2018-03-04T07:04:04.798Z,12.77
2018-03-04T07:06:32.387Z,13.70
2018-03-04T07:09:00.783Z,15.37
2018-03-04T07:11:28.310Z,13.60
2018-03-04T07:13:55.890Z,11.93
2018-03-04T07:16:24.159Z,12.67
2018-03-04T07:18:52.435Z,11.63
2018-03-04T07:21:19.953Z,11.23
2018-03-04T07:23:47.472Z,12.53
2018-03-04T07:26:15.757Z,12.33
2018-03-04T07:28:44.031Z,13.13
2018-03-04T07:31:12.318Z,12.50
2018-03-04T07:33:40.602Z,12.37
2018-03-04T07:36:09.152Z,12.13
2018-03-04T07:38:36.693Z,12.37
2018-03-04T07:41:04.198Z,11.80
2018-03-04T07:43:31.718Z,11.73
2018-03-04T07:45:59.250Z,11.47
2018-03-04T07:48:26.770Z,13.03
2018-03-04T07:50:54.378Z,12.40
2018-03-04T07:53:21.893Z,12.67
2018-03-04T07:55:49.437Z,12.07
2018-03-04T07:58:16.966Z,13.23
2018-03-04T08:00:45.383Z,11.60
2018-03-04T08:03:12.901Z,13.90
2018-03-04T08:05:41.170Z,12.27
2018-03-04T08:08:09.229Z,11.30
2018-03-04T08:10:36.742Z,12.40
2018-03-04T08:13:04.295Z,12.07
2018-03-04T08:15:32.574Z,10.53
2018-03-04T08:18:00.854Z,12.80
2018-03-04T08:20:29.244Z,11.33
2018-03-04T08:22:56.755Z,12.00
2018-03-04T08:25:31.019Z,13.93
2018-03-04T08:28:11.277Z,15.53
2018-03-04T08:30:38.792Z,19.37
2018-03-04T08:33:06.419Z,16.17
2018-03-04T08:35:33.967Z,14.47
2018-03-04T08:38:02.248Z,14.80
2018-03-04T08:40:30.534Z,23.97
2018-03-04T08:42:58.041Z,24.87
2018-03-04T08:45:25.549Z,28.13
2018-03-04T08:47:53.860Z,24.73
2018-03-04T08:50:22.222Z,21.73
2018-03-04T08:52:49.784Z,23.93
2018-03-04T08:55:18.182Z,18.90
2018-03-04T08:57:45.729Z,18.13
2018-03-04T09:00:14.011Z,17.80
2018-03-04T09:02:41.581Z,22.50
2018-03-04T09:05:09.147Z,24.53
2018-03-04T09:07:36.660Z,22.57
2018-03-04T09:10:04.267Z,22.80
2018-03-04T09:12:32.553Z,23.87
2018-03-04T09:15:00.077Z,19.00
2018-03-04T09:17:27.679Z,16.03
2018-03-04T09:19:56.065Z,15.97
2018-03-04T09:22:23.599Z,14.87
2018-03-04T09:24:51.191Z,16.80
2018-03-04T09:27:19.477Z,14.97
2018-03-04T09:29:47.001Z,18.53
2018-03-04T09:32:14.596Z,17.23
2018-03-04T09:34:42.876Z,15.10
2018-03-04T09:37:11.160Z,16.27
2018-03-04T09:39:39.545Z,14.13
2018-03-04T09:42:07.133Z,13.90
2018-03-04T09:44:34.675Z,16.10
2018-03-04T09:47:02.959Z,20.03
2018-03-04T09:49:30.520Z,18.60
2018-03-04T09:51:58.039Z,15.73
2018-03-04T09:54:25.555Z,14.87
2018-03-04T09:56:53.079Z,14.77
2018-03-04T09:59:20.686Z,15.70
2018-03-04T10:01:48.242Z,13.40
2018-03-04T10:04:15.766Z,14.90
2018-03-04T10:06:43.276Z,13.40
2018-03-04T10:09:10.829Z,14.23
2018-03-04T10:11:39.125Z,12.30
2018-03-04T10:14:06.639Z,21.57
2018-03-04T10:16:34.239Z,21.83
2018-03-04T10:19:02.620Z,19.17
2018-03-04T10:21:31.028Z,15.33
2018-03-04T10:23:58.541Z,14.30
2018-03-04T10:26:26.128Z,17.47
2018-03-04T10:28:54.531Z,17.33
2018-03-04T10:31:23.002Z,16.03
2018-03-04T10:33:51.278Z,15.37
2018-03-04T10:36:19.554Z,17.83
2018-03-04T10:38:47.847Z,17.33
2018-03-04T10:41:15.365Z,14.40
2018-03-04T10:43:42.915Z,16.97
2018-03-04T10:46:10.460Z,13.77
2018-03-04T10:48:37.990Z,14.77
2018-03-04T10:51:06.297Z,15.67
2018-03-04T10:53:33.813Z,11.53
2018-03-04T10:56:01.329Z,12.67
2018-03-04T10:58:28.860Z,17.17
2018-03-04T11:00:57.133Z,13.80
2018-03-04T11:03:25.422Z,13.13
2018-03-04T11:05:53.756Z,15.03
2018-03-04T11:08:21.314Z,19.13
2018-03-04T11:10:48.867Z,17.47
2018-03-04T11:13:16.405Z,17.00
2018-03-04T11:15:43.970Z,15.93
2018-03-04T11:18:12.358Z,15.37
2018-03-04T11:20:39.903Z,16.97
2018-03-04T11:23:08.206Z,15.17
2018-03-04T11:25:36.805Z,13.67
2018-03-04T11:28:04.340Z,15.47
2018-03-04T11:30:32.638Z,12.23
2018-03-04T11:33:01.116Z,13.07
2018-03-04T11:35:29.511Z,13.53
2018-03-04T11:37:57.070Z,13.67
2018-03-04T11:40:24.636Z,13.23
2018-03-04T11:42:52.194Z,12.30
2018-03-04T11:45:20.464Z,12.63
2018-03-04T11:47:48.758Z,13.67
2018-03-04T11:50:16.292Z,12.67
2018-03-04T11:52:43.810Z,12.50
2018-03-04T11:55:11.339Z,13.37
2018-03-04T11:57:40.571Z,12.97
2018-03-04T12:00:08.102Z,11.07
2018-03-04T12:02:36.374Z,11.17
2018-03-04T12:05:04.668Z,11.93
2018-03-04T12:07:32.972Z,14.07
2018-03-04T12:10:00.494Z,11.53
2018-03-04T12:12:28.101Z,11.27
2018-03-04T12:14:55.609Z,21.53
2018-03-04T12:17:23.130Z,11.07
2018-03-04T12:19:50.632Z,9.53
2018-03-04T12:22:18.143Z,7.80
2018-03-04T12:24:45.658Z,12.17
2018-03-04T12:27:13.194Z,10.90
2018-03-04T12:29:40.820Z,9.90
2018-03-04T12:32:09.102Z,11.13
2018-03-04T12:34:37.378Z,9.10
2018-03-04T12:37:05.661Z,9.73
2018-03-04T12:39:34.455Z,12.57
2018-03-04T12:42:02.720Z,7.77
2018-03-04T12:44:30.991Z,7.73
2018-03-04T12:46:58.505Z,9.03
2018-03-04T12:49:26.028Z,9.47
2018-03-04T12:51:54.359Z,7.90
2018-03-04T12:54:22.111Z,8.40
2018-03-04T12:56:49.656Z,8.07
2018-03-04T12:59:17.926Z,8.77
2018-03-04T13:01:45.521Z,7.13
2018-03-04T13:04:13.038Z,7.00
2018-03-04T13:06:40.649Z,8.73
2018-03-04T13:09:08.171Z,6.97
2018-03-04T13:11:35.696Z,7.83
2018-03-04T13:14:03.915Z,6.00
2018-03-04T13:16:31.431Z,7.33
2018-03-04T13:18:58.947Z,6.27
2018-03-04T13:21:26.537Z,7.13
2018-03-04T13:23:54.061Z,6.40
2018-03-04T13:26:22.382Z,6.30
2018-03-04T13:28:49.896Z,6.93
2018-03-04T13:31:17.410Z,5.47
2018-03-04T13:33:44.921Z,6.23
2018-03-04T13:36:12.472Z,5.80
2018-03-04T13:38:39.986Z,5.63
2018-03-04T13:41:08.264Z,5.47
2018-03-04T13:43:36.547Z,5.77
2018-03-04T13:46:04.811Z,5.27
2018-03-04T13:48:32.330Z,4.93
2018-03-04T13:50:59.856Z,4.33
2018-03-04T13:53:28.177Z,5.23
2018-03-04T13:55:56.215Z,4.30
2018-03-04T13:58:24.598Z,4.37
2018-03-04T14:00:52.118Z,5.33
2018-03-04T14:03:19.630Z,4.47
2018-03-04T14:05:47.928Z,5.17
2018-03-04T14:08:15.435Z,4.23
2018-03-04T14:10:42.960Z,4.53
2018-03-04T14:13:10.498Z,6.37
2018-03-04T14:15:38.878Z,5.17
2018-03-04T14:18:07.157Z,5.97
2018-03-04T14:20:35.444Z,7.80
2018-03-04T14:23:03.719Z,6.00
2018-03-04T14:25:31.990Z,5.97
2018-03-04T14:28:00.263Z,8.03
2018-03-04T14:30:27.848Z,7.90
2018-03-04T14:32:56.117Z,8.47
2018-03-04T14:35:24.418Z,6.40
2018-03-04T14:37:52.070Z,6.10
2018-03-04T14:40:20.368Z,7.80
2018-03-04T14:42:47.915Z,9.77
2018-03-04T14:45:16.918Z,10.87
2018-03-04T14:47:45.188Z,7.80
2018-03-04T14:50:13.484Z,7.57
2018-03-04T14:52:48.889Z,7.67
2018-03-04T14:55:16.356Z,7.77
2018-03-04T14:57:43.943Z,6.93
2018-03-04T15:00:12.234Z,8.47
2018-03-04T15:02:39.788Z,8.30
2018-03-04T15:05:08.077Z,8.27
2018-03-04T15:07:36.345Z,9.47
2018-03-04T15:10:04.616Z,8.47
2018-03-04T15:12:32.165Z,8.70
2018-03-04T15:14:59.759Z,7.33
2018-03-04T15:17:28.032Z,8.00
2018-03-04T15:19:56.313Z,7.93
2018-03-04T15:22:25.385Z,7.47
2018-03-04T15:24:52.935Z,8.77
2018-03-04T15:27:20.450Z,7.77
2018-03-04T15:29:48.723Z,6.07
2018-03-04T15:32:17.009Z,7.83
2018-03-04T15:34:45.286Z,7.13
2018-03-04T15:37:13.563Z,6.60
2018-03-04T15:39:41.098Z,6.60
2018-03-04T15:42:08.623Z,6.80
2018-03-04T15:44:37.299Z,5.90
2018-03-04T15:47:04.818Z,5.97
2018-03-04T15:49:33.302Z,6.67
2018-03-04T15:52:01.030Z,7.33
2018-03-04T15:54:28.601Z,7.27
2018-03-04T15:56:57.479Z,7.50
2018-03-04T15:59:25.056Z,7.33
2018-03-04T16:01:52.623Z,5.80
2018-03-04T16:04:20.962Z,8.60
2018-03-04T16:06:49.251Z,6.37
2018-03-04T16:09:17.537Z,7.40
2018-03-04T16:11:45.064Z,5.53
2018-03-04T16:14:12.575Z,5.63
2018-03-04T16:16:40.098Z,6.40
2018-03-04T16:19:07.630Z,5.43
2018-03-04T16:21:35.153Z,6.07
2018-03-04T16:24:02.720Z,6.23
2018-03-04T16:26:31.001Z,6.37
2018-03-04T16:28:58.977Z,4.73
2018-03-04T16:31:26.562Z,6.13
2018-03-04T16:33:54.112Z,6.30
2018-03-04T16:36:21.617Z,6.20
2018-03-04T16:38:49.143Z,5.73
2018-03-04T16:41:16.712Z,6.47
2018-03-04T16:43:44.235Z,4.73
2018-03-04T16:46:12.521Z,5.30
2018-03-04T16:48:40.824Z,4.60
2018-03-04T16:51:08.369Z,3.92
2018-03-04T16:53:36.651Z,7.20
2018-03-04T16:56:04.934Z,6.70
2018-03-04T16:58:33.216Z,6.97
2018-03-04T17:01:01.511Z,7.30
2018-03-04T17:03:29.027Z,7.63
2018-03-04T17:05:56.538Z,6.17
2018-03-04T17:08:24.109Z,6.20
2018-03-04T17:10:51.661Z,6.40
2018-03-04T17:13:19.948Z,6.23
2018-03-04T17:15:47.462Z,7.90
2018-03-04T17:18:14.966Z,7.17
2018-03-04T17:20:43.237Z,6.53
2018-03-04T17:23:11.517Z,7.10
2018-03-04T17:25:39.916Z,6.90
2018-03-04T17:28:07.427Z,9.53
2018-03-04T17:30:34.945Z,8.50
2018-03-04T17:33:02.453Z,7.47
2018-03-04T17:35:29.979Z,7.93
2018-03-04T17:37:57.525Z,16.07
2018-03-04T17:40:25.799Z,8.07
2018-03-04T17:42:54.078Z,12.10
2018-03-04T17:45:22.818Z,10.73
2018-03-04T17:47:50.341Z,11.07
2018-03-04T17:50:18.621Z,7.17
2018-03-04T17:52:46.916Z,10.13
2018-03-04T17:55:14.435Z,8.57
2018-03-04T17:57:41.970Z,9.27
2018-03-04T18:00:09.500Z,11.67
2018-03-04T18:02:37.004Z,9.17
2018-03-04T18:05:04.513Z,8.77
2018-03-04T18:07:32.791Z,7.50
2018-03-04T18:10:01.064Z,8.27
2018-03-04T18:12:28.590Z,10.67
2018-03-04T18:14:56.101Z,12.43
2018-03-04T18:17:24.387Z,8.20
2018-03-04T18:19:52.684Z,9.73
2018-03-04T18:22:20.244Z,7.70
2018-03-04T18:24:47.758Z,8.93
2018-03-04T18:27:15.290Z,9.00
2018-03-04T18:29:42.821Z,7.87
2018-03-04T18:32:11.165Z,11.20
2018-03-04T18:34:38.657Z,9.60
2018-03-04T18:37:06.162Z,12.47
2018-03-04T18:39:33.685Z,10.77
2018-03-04T18:42:01.976Z,12.03
2018-03-04T18:44:29.536Z,12.47
2018-03-04T18:46:57.811Z,10.73
2018-03-04T18:49:26.101Z,20.20
2018-03-04T18:51:54.388Z,11.30
2018-03-04T18:54:21.900Z,11.93
2018-03-04T18:56:49.426Z,11.50
2018-03-04T18:59:16.992Z,13.57
2018-03-04T19:01:44.508Z,14.93
2018-03-04T19:04:12.119Z,12.37
2018-03-04T19:06:39.673Z,13.50
2018-03-04T19:09:07.242Z,11.77
2018-03-04T19:11:35.778Z,12.23
2018-03-04T19:14:03.385Z,12.47
2018-03-04T19:16:31.668Z,14.17
2018-03-04T19:18:59.185Z,11.73
2018-03-04T19:21:26.735Z,13.07
2018-03-04T19:23:54.234Z,13.10
2018-03-04T19:26:21.765Z,13.73
2018-03-04T19:28:49.292Z,13.73
2018-03-04T19:31:17.378Z,15.90
2018-03-04T19:33:44.894Z,15.27
2018-03-04T19:36:12.420Z,15.57
2018-03-04T19:38:39.936Z,14.93
2018-03-04T19:41:08.244Z,16.50
2018-03-04T19:43:35.798Z,15.93
2018-03-04T19:46:03.313Z,14.77
2018-03-04T19:48:30.842Z,16.57
2018-03-04T19:50:58.389Z,20.13
2018-03-04T19:53:25.919Z,16.60
2018-03-04T19:55:53.445Z,16.27
2018-03-04T19:58:20.992Z,13.77
2018-03-04T20:00:48.520Z,14.60
2018-03-04T20:03:16.812Z,15.37
2018-03-04T20:05:45.114Z,14.47
2018-03-04T20:08:12.671Z,12.40
2018-03-04T20:10:40.208Z,13.67
2018-03-04T20:13:07.735Z,14.17
2018-03-04T20:15:35.266Z,16.10
2018-03-04T20:18:02.792Z,14.20
2018-03-04T20:20:30.426Z,17.13
2018-03-04T20:22:57.935Z,17.43
2018-03-04T20:25:26.245Z,13.87
2018-03-04T20:27:53.775Z,14.70
2018-03-04T20:30:22.099Z,14.20
2018-03-04T20:32:49.632Z,17.90
2018-03-04T20:35:17.924Z,22.40
2018-03-04T20:37:45.463Z,17.30
2018-03-04T20:40:13.773Z,17.70
2018-03-04T20:42:41.495Z,16.13
2018-03-04T20:45:09.056Z,15.87
2018-03-04T20:47:36.608Z,14.80
2018-03-04T20:50:04.141Z,16.77
2018-03-04T20:52:31.656Z,20.00
2018-03-04T20:54:59.187Z,17.07
2018-03-04T20:57:26.716Z,19.80
2018-03-04T20:59:54.599Z,20.10
2018-03-04T21:02:22.129Z,16.67
2018-03-04T21:04:50.425Z,15.80
2018-03-04T21:07:18.750Z,17.13
2018-03-04T21:09:46.270Z,19.40
2018-03-04T21:12:14.573Z,18.00
2018-03-04T21:14:42.139Z,16.57
2018-03-04T21:17:09.664Z,14.77
2018-03-04T21:19:37.941Z,16.03
2018-03-04T21:22:05.482Z,15.97
2018-03-04T21:24:33.028Z,17.73
2018-03-04T21:27:00.573Z,18.47
2018-03-04T21:29:28.142Z,16.17
2018-03-04T21:31:55.671Z,18.40
2018-03-04T21:34:23.949Z,18.60
2018-03-04T21:36:52.248Z,16.50
2018-03-04T21:39:19.812Z,17.57
2018-03-04T21:41:47.374Z,16.60
2018-03-04T21:44:14.946Z,18.37
2018-03-04T21:46:42.474Z,18.37
2018-03-04T21:49:10.065Z,17.50
2018-03-04T21:51:37.612Z,18.40
2018-03-04T21:54:05.917Z,18.13
2018-03-04T21:56:33.485Z,17.03
2018-03-04T21:59:00.998Z,17.53
2018-03-04T22:01:28.630Z,16.53
2018-03-04T22:03:56.173Z,16.20
2018-03-04T22:06:23.689Z,18.20
2018-03-04T22:08:51.249Z,17.37
2018-03-04T22:11:18.924Z,18.60
2018-03-04T22:13:46.423Z,17.50
2018-03-04T22:16:14.701Z,15.87
2018-03-04T22:18:42.989Z,17.27
2018-03-04T22:21:10.512Z,18.77
2018-03-04T22:23:38.034Z,19.27
2018-03-04T22:26:05.546Z,16.30
2018-03-04T22:28:33.074Z,16.87
2018-03-04T22:31:00.581Z,17.37
2018-03-04T22:33:28.179Z,18.93
2018-03-04T22:35:55.734Z,18.80
2018-03-04T22:38:24.004Z,19.37
2018-03-04T22:40:52.872Z,17.53
2018-03-04T22:43:20.406Z,18.07
2018-03-04T22:45:47.956Z,19.40
2018-03-04T22:48:15.513Z,19.27
2018-03-04T22:50:43.051Z,19.60
2018-03-04T22:53:11.369Z,19.57
2018-03-04T22:55:38.899Z,19.63
2018-03-04T22:58:07.200Z,18.23
2018-03-04T23:00:34.746Z,19.37
2018-03-04T23:03:03.071Z,17.37
2018-03-04T23:05:30.611Z,19.93
2018-03-04T23:07:58.153Z,21.77
2018-03-04T23:10:26.458Z,19.53
2018-03-04T23:12:54.004Z,18.90
2018-03-04T23:15:22.309Z,17.43
2018-03-04T23:17:49.855Z,18.57
2018-03-04T23:20:17.420Z,19.70
2018-03-04T23:22:44.965Z,15.80
2018-03-04T23:25:13.261Z,17.87
2018-03-04T23:27:40.802Z,19.77
2018-03-04T23:30:08.320Z,17.00
2018-03-04T23:32:35.868Z,17.90
2018-03-04T23:35:03.393Z,15.93
2018-03-04T23:37:30.909Z,15.40
2018-03-04T23:39:58.434Z,15.03
2018-03-04T23:42:26.871Z,15.80
2018-03-04T23:44:54.418Z,15.47
2018-03-04T23:47:21.950Z,15.00
2018-03-04T23:49:50.234Z,15.53
2018-03-04T23:52:17.768Z,15.60
2018-03-04T23:54:45.358Z,14.23
2018-03-04T23:57:13.641Z,14.10
2018-03-04T23:59:41.167Z,12.73
